createdAt,value
2018-02-22T00:00:51.576Z,23.60
2018-02-22T00:03:19.316Z,23.45
2018-02-22T00:05:47.104Z,24.30
2018-02-22T00:08:14.760Z,22.43
2018-02-22T00:10:42.487Z,23.38
2018-02-22T00:13:10.229Z,21.37
2018-02-22T00:15:37.952Z,23.75
2018-02-22T00:18:05.720Z,25.88
2018-02-22T00:20:33.476Z,26.08
2018-02-22T00:23:01.245Z,20.00
2018-02-22T00:25:29.016Z,25.37
2018-02-22T00:27:56.737Z,22.30
2018-02-22T00:30:24.475Z,22.23
2018-02-22T00:32:52.202Z,25.15
2018-02-22T00:35:19.968Z,24.85
2018-02-22T00:37:47.736Z,22.80
2018-02-22T00:40:15.605Z,23.95
2018-02-22T00:42:43.372Z,23.58
2018-02-22T00:45:11.113Z,21.98
2018-02-22T00:47:38.900Z,22.37
2018-02-22T00:50:06.665Z,32.72
2018-02-22T00:52:34.428Z,38.38
2018-02-22T00:55:02.092Z,21.90
2018-02-22T00:57:29.752Z,26.80
2018-02-22T00:59:57.525Z,22.70
2018-02-22T01:02:25.189Z,23.87
2018-02-22T01:04:52.940Z,26.05
2018-02-22T01:07:20.659Z,23.15
2018-02-22T01:09:48.381Z,23.15
2018-02-22T01:12:16.129Z,25.08
2018-02-22T01:14:43.852Z,22.75
2018-02-22T01:17:11.587Z,22.55
2018-02-22T01:19:39.228Z,24.20
2018-02-22T01:22:06.893Z,25.10
2018-02-22T01:24:34.556Z,24.50
2018-02-22T01:27:02.428Z,25.35
2018-02-22T01:29:30.147Z,23.65
2018-02-22T01:31:57.957Z,24.67
2018-02-22T01:34:25.720Z,24.15
2018-02-22T01:36:53.492Z,25.80
2018-02-22T01:39:21.213Z,25.98
2018-02-22T01:41:48.964Z,29.63
2018-02-22T01:44:16.690Z,25.90
2018-02-22T01:46:44.452Z,35.70
2018-02-22T01:49:12.196Z,43.13
2018-02-22T01:51:39.981Z,24.65
2018-02-22T01:54:07.726Z,29.27
2018-02-22T01:56:35.457Z,26.77
2018-02-22T01:59:03.205Z,35.60
2018-02-22T02:01:30.933Z,28.00
2018-02-22T02:03:58.709Z,24.37
2018-02-22T02:06:26.469Z,24.77
2018-02-22T02:08:54.222Z,26.75
2018-02-22T02:11:21.873Z,31.07
2018-02-22T02:13:49.618Z,30.55
2018-02-22T02:16:17.426Z,25.52
2018-02-22T02:18:45.188Z,24.40
2018-02-22T02:21:12.956Z,26.00
2018-02-22T02:23:40.735Z,24.42
2018-02-22T02:26:08.459Z,24.10
2018-02-22T02:28:36.201Z,28.27
2018-02-22T02:31:03.952Z,26.58
2018-02-22T02:33:31.685Z,22.95
2018-02-22T02:35:59.542Z,23.83
2018-02-22T02:38:27.315Z,21.70
2018-02-22T02:40:55.073Z,22.08
2018-02-22T02:43:22.802Z,21.85
2018-02-22T02:45:50.608Z,26.02
2018-02-22T02:48:18.342Z,31.27
2018-02-22T02:50:46.097Z,28.50
2018-02-22T02:53:13.863Z,23.95
2018-02-22T02:55:41.664Z,26.33
2018-02-22T02:58:09.428Z,27.48
2018-02-22T03:00:37.203Z,26.95
2018-02-22T03:03:04.969Z,25.05
2018-02-22T03:05:32.721Z,26.27
2018-02-22T03:08:00.484Z,28.75
2018-02-22T03:10:28.208Z,24.30
2018-02-22T03:12:56.020Z,21.48
2018-02-22T03:15:23.739Z,27.25
2018-02-22T03:17:51.552Z,22.33
2018-02-22T03:20:19.270Z,22.60
2018-02-22T03:22:47.007Z,20.50
2018-02-22T03:25:14.718Z,25.40
2018-02-22T03:27:42.510Z,23.15
2018-02-22T03:30:10.221Z,19.58
2018-02-22T03:32:37.956Z,19.12
2018-02-22T03:35:05.696Z,20.20
2018-02-22T03:37:33.468Z,21.23
2018-02-22T03:40:01.231Z,21.83
2018-02-22T03:42:28.999Z,23.25
2018-02-22T03:44:56.749Z,20.58
2018-02-22T03:47:24.467Z,20.77
2018-02-22T03:49:52.214Z,20.58
2018-02-22T03:52:19.951Z,17.00
2018-02-22T03:54:47.690Z,18.25
2018-02-22T03:57:15.411Z,18.60
2018-02-22T03:59:43.252Z,17.65
2018-02-22T04:02:11.024Z,17.15
2018-02-22T04:04:38.777Z,19.20
2018-02-22T04:07:06.495Z,19.37
2018-02-22T04:09:34.307Z,21.50
2018-02-22T04:12:02.071Z,20.08
2018-02-22T04:14:29.848Z,21.05
2018-02-22T04:16:57.583Z,22.05
2018-02-22T04:19:25.299Z,20.77
2018-02-22T04:21:53.034Z,19.20
2018-02-22T04:24:20.671Z,22.27
2018-02-22T04:26:48.462Z,23.35
2018-02-22T04:29:16.223Z,22.62
2018-02-22T04:31:43.968Z,21.80
2018-02-22T04:34:11.751Z,22.75
2018-02-22T04:36:39.523Z,22.20
2018-02-22T04:39:08.003Z,20.58
2018-02-22T04:41:35.754Z,22.35
2018-02-22T04:44:03.540Z,21.90
2018-02-22T04:46:31.404Z,20.67
2018-02-22T04:48:59.167Z,20.25
2018-02-22T04:51:26.906Z,23.38
2018-02-22T04:53:54.774Z,19.65
2018-02-22T04:56:22.563Z,20.17
2018-02-22T04:58:50.327Z,20.30
2018-02-22T05:01:18.040Z,19.92
2018-02-22T05:03:45.860Z,20.98
2018-02-22T05:06:13.599Z,22.87
2018-02-22T05:08:41.344Z,27.65
2018-02-22T05:11:09.169Z,29.37
2018-02-22T05:13:36.958Z,33.45
2018-02-22T05:16:04.697Z,23.87
2018-02-22T05:18:32.524Z,30.30
2018-02-22T05:21:00.224Z,23.17
2018-02-22T05:23:27.907Z,23.45
2018-02-22T05:25:55.723Z,22.95
2018-02-22T05:28:23.407Z,21.08
2018-02-22T05:30:51.152Z,23.55
2018-02-22T05:33:18.843Z,21.20
2018-02-22T05:35:46.580Z,20.80
2018-02-22T05:38:14.349Z,20.83
2018-02-22T05:40:42.109Z,21.95
2018-02-22T05:43:09.787Z,22.65
2018-02-22T05:45:37.541Z,21.33
2018-02-22T05:48:05.309Z,22.05
2018-02-22T05:50:33.035Z,21.35
2018-02-22T05:53:00.720Z,20.67
2018-02-22T05:55:28.491Z,24.60
2018-02-22T05:57:56.196Z,22.77
2018-02-22T06:00:23.933Z,22.58
2018-02-22T06:02:51.658Z,20.62
2018-02-22T06:05:19.347Z,20.73
2018-02-22T06:07:47.131Z,20.23
2018-02-22T06:10:14.819Z,19.35
2018-02-22T06:12:42.524Z,19.15
2018-02-22T06:15:10.216Z,21.12
2018-02-22T06:17:37.967Z,18.25
2018-02-22T06:20:05.736Z,19.08
2018-02-22T06:22:33.815Z,18.77
2018-02-22T06:25:01.571Z,18.65
2018-02-22T06:27:29.304Z,18.25
2018-02-22T06:29:56.988Z,17.00
2018-02-22T06:32:25.673Z,16.58
2018-02-22T06:34:53.451Z,18.42
2018-02-22T06:37:21.145Z,18.77
2018-02-22T06:39:48.851Z,20.25
2018-02-22T06:42:16.649Z,20.30
2018-02-22T06:44:44.355Z,18.98
2018-02-22T06:47:12.064Z,16.85
2018-02-22T06:49:39.780Z,20.48
2018-02-22T06:52:07.511Z,20.50
2018-02-22T06:54:35.267Z,18.25
2018-02-22T06:57:02.961Z,17.80
2018-02-22T06:59:30.681Z,20.52
2018-02-22T07:01:58.368Z,20.70
2018-02-22T07:04:26.080Z,18.80
2018-02-22T07:06:54.136Z,18.87
2018-02-22T07:09:21.778Z,20.90
2018-02-22T07:11:49.464Z,20.15
2018-02-22T07:14:17.196Z,20.58
2018-02-22T07:16:44.848Z,21.60
2018-02-22T07:19:12.508Z,19.70
2018-02-22T07:21:40.215Z,21.00
2018-02-22T07:24:07.966Z,16.62
2018-02-22T07:26:35.607Z,18.73
2018-02-22T07:29:03.224Z,19.77
2018-02-22T07:31:30.933Z,21.12
2018-02-22T07:33:58.616Z,20.23
2018-02-22T07:36:26.323Z,21.15
2018-02-22T07:38:54.120Z,18.60
2018-02-22T07:41:21.784Z,19.97
2018-02-22T07:43:49.476Z,19.73
2018-02-22T07:46:17.108Z,20.73
2018-02-22T07:48:44.722Z,18.60
2018-02-22T07:51:12.441Z,18.23
2018-02-22T07:53:40.104Z,18.43
2018-02-22T07:56:07.731Z,17.53
2018-02-22T07:58:35.419Z,17.03
2018-02-22T08:01:03.048Z,16.27
2018-02-22T08:03:30.747Z,17.73
2018-02-22T08:05:58.412Z,17.70
2018-02-22T08:08:26.076Z,16.33
2018-02-22T08:10:53.736Z,19.07
2018-02-22T08:13:21.404Z,18.60
2018-02-22T08:15:49.007Z,17.87
2018-02-22T08:18:16.645Z,15.23
2018-02-22T08:20:44.283Z,17.93
2018-02-22T08:23:11.915Z,17.53
2018-02-22T08:25:39.612Z,17.90
2018-02-22T08:28:07.240Z,16.13
2018-02-22T08:30:34.854Z,19.57
2018-02-22T08:33:02.598Z,20.60
2018-02-22T08:35:30.268Z,18.87
2018-02-22T08:37:57.910Z,18.20
2018-02-22T08:40:25.519Z,18.60
2018-02-22T08:42:53.147Z,18.30
2018-02-22T08:45:20.815Z,18.60
2018-02-22T08:47:48.440Z,19.53
2018-02-22T08:50:16.140Z,17.80
2018-02-22T08:52:43.777Z,18.03
2018-02-22T08:55:11.392Z,19.20
2018-02-22T08:57:39.024Z,20.20
2018-02-22T09:00:06.688Z,19.70
2018-02-22T09:02:34.405Z,19.40
2018-02-22T09:05:02.009Z,16.83
2018-02-22T09:07:29.617Z,17.07
2018-02-22T09:09:57.275Z,18.00
2018-02-22T09:12:24.879Z,18.33
2018-02-22T09:14:52.512Z,19.23
2018-02-22T09:17:20.209Z,18.00
2018-02-22T09:19:47.844Z,17.60
2018-02-22T09:22:15.453Z,17.33
2018-02-22T09:24:43.088Z,17.37
2018-02-22T09:27:10.687Z,17.60
2018-02-22T09:29:38.319Z,17.47
2018-02-22T09:32:06.097Z,16.90
2018-02-22T09:34:33.763Z,14.87
2018-02-22T09:37:01.424Z,16.13
2018-02-22T09:39:29.083Z,14.90
2018-02-22T09:41:56.758Z,15.67
2018-02-22T09:44:24.412Z,14.67
2018-02-22T09:46:52.048Z,17.53
2018-02-22T09:49:19.736Z,17.77
2018-02-22T09:51:47.363Z,15.00
2018-02-22T09:54:14.991Z,17.80
2018-02-22T09:56:42.724Z,15.37
2018-02-22T09:59:10.328Z,16.13
2018-02-22T10:01:37.956Z,16.43
2018-02-22T10:04:05.573Z,16.33
2018-02-22T10:06:33.208Z,15.70
2018-02-22T10:09:00.853Z,18.67
2018-02-22T10:11:28.496Z,16.23
2018-02-22T10:13:56.159Z,17.50
2018-02-22T10:16:23.828Z,16.03
2018-02-22T10:18:51.487Z,17.03
2018-02-22T10:21:19.120Z,17.37
2018-02-22T10:23:46.728Z,15.00
2018-02-22T10:26:14.371Z,16.07
2018-02-22T10:28:42.044Z,18.27
2018-02-22T10:31:09.695Z,18.17
2018-02-22T10:33:37.303Z,18.10
2018-02-22T10:36:04.926Z,18.77
2018-02-22T10:38:32.556Z,18.87
2018-02-22T10:41:00.181Z,20.60
2018-02-22T10:43:27.907Z,20.50
2018-02-22T10:45:55.581Z,19.37
2018-02-22T10:48:23.220Z,19.50
2018-02-22T10:50:50.869Z,20.17
2018-02-22T10:53:18.564Z,22.17
2018-02-22T10:55:46.171Z,21.40
2018-02-22T10:58:13.803Z,20.83
2018-02-22T11:00:47.080Z,21.90
2018-02-22T11:03:14.710Z,20.27
2018-02-22T11:05:42.315Z,23.03
2018-02-22T11:08:11.509Z,23.53
2018-02-22T11:10:39.273Z,22.23
2018-02-22T11:13:06.928Z,23.10
2018-02-22T11:15:34.595Z,24.93
2018-02-22T11:18:02.206Z,23.03
2018-02-22T11:20:29.920Z,25.10
2018-02-22T11:22:57.584Z,23.77
2018-02-22T11:25:25.244Z,24.57
2018-02-22T11:27:52.860Z,24.20
2018-02-22T11:30:20.510Z,23.93
2018-02-22T11:32:48.232Z,25.13
2018-02-22T11:35:15.865Z,26.53
2018-02-22T11:37:43.476Z,24.50
2018-02-22T11:40:11.115Z,24.83
2018-02-22T11:42:38.733Z,26.07
2018-02-22T11:45:06.446Z,23.47
2018-02-22T11:47:34.052Z,26.43
2018-02-22T11:50:01.777Z,26.10
2018-02-22T11:52:29.391Z,26.03
2018-02-22T11:54:57.101Z,23.47
2018-02-22T11:57:24.708Z,24.00
2018-02-22T11:59:52.340Z,25.20
2018-02-22T12:02:19.992Z,34.33
2018-02-22T12:04:47.648Z,26.77
2018-02-22T12:07:15.308Z,39.80
2018-02-22T12:09:42.912Z,26.40
2018-02-22T12:12:10.636Z,24.80
2018-02-22T12:14:38.296Z,21.60
2018-02-22T12:17:05.928Z,23.07
2018-02-22T12:19:33.535Z,22.80
2018-02-22T12:22:01.164Z,21.97
2018-02-22T12:24:28.784Z,18.90
2018-02-22T12:26:56.411Z,23.40
2018-02-22T12:29:24.075Z,25.47
2018-02-22T12:31:51.727Z,24.60
2018-02-22T12:34:19.328Z,23.47
2018-02-22T12:36:46.969Z,22.87
2018-02-22T12:39:14.576Z,22.33
2018-02-22T12:41:42.286Z,21.37
2018-02-22T12:44:09.939Z,22.03
2018-02-22T12:46:37.604Z,24.23
2018-02-22T12:49:05.273Z,22.90
2018-02-22T12:51:32.932Z,21.67
2018-02-22T12:54:00.559Z,19.60
2018-02-22T12:56:28.176Z,21.00
2018-02-22T12:58:55.924Z,21.10
2018-02-22T13:01:23.681Z,20.57
2018-02-22T13:03:51.316Z,20.83
2018-02-22T13:06:18.920Z,19.90
2018-02-22T13:08:46.575Z,18.70
2018-02-22T13:11:14.234Z,19.80
2018-02-22T13:13:41.864Z,19.20
2018-02-22T13:16:09.472Z,17.23
2018-02-22T13:18:37.129Z,15.80
2018-02-22T13:21:04.740Z,15.93
2018-02-22T13:23:32.443Z,15.97
2018-02-22T13:26:00.114Z,15.00
2018-02-22T13:28:27.768Z,14.07
2018-02-22T13:30:55.431Z,13.40
2018-02-22T13:33:34.991Z,15.00
2018-02-22T13:36:02.620Z,13.73
2018-02-22T13:38:41.972Z,12.70
2018-02-22T13:41:09.609Z,12.13
2018-02-22T13:43:37.267Z,12.30
2018-02-22T13:46:04.972Z,13.37
2018-02-22T13:48:44.507Z,14.83
2018-02-22T13:51:12.173Z,15.70
2018-02-22T13:53:39.790Z,14.73
2018-02-22T13:56:07.424Z,13.57
2018-02-22T13:58:35.155Z,11.03
2018-02-22T14:01:14.598Z,14.63
2018-02-22T14:03:42.217Z,14.87
2018-02-22T14:06:09.924Z,15.07
2018-02-22T14:08:43.528Z,14.37
2018-02-22T14:11:11.193Z,13.17
2018-02-22T14:13:38.809Z,14.67
2018-02-22T14:16:06.441Z,14.67
2018-02-22T14:18:34.076Z,14.50
2018-02-22T14:21:01.713Z,15.07
2018-02-22T14:23:29.395Z,13.00
2018-02-22T14:25:57.059Z,13.40
2018-02-22T14:28:24.719Z,14.60
2018-02-22T14:30:52.383Z,14.50
2018-02-22T14:33:19.992Z,13.43
2018-02-22T14:35:47.709Z,12.50
2018-02-22T14:38:15.381Z,14.90
2018-02-22T14:40:43.035Z,14.70
2018-02-22T14:43:10.696Z,15.47
2018-02-22T14:45:38.372Z,16.00
2018-02-22T14:48:06.024Z,13.67
2018-02-22T14:50:33.688Z,14.57
2018-02-22T14:53:01.325Z,15.43
2018-02-22T14:55:29.022Z,15.40
2018-02-22T14:57:56.679Z,14.70
2018-02-22T15:00:24.339Z,15.20
2018-02-22T15:02:52.008Z,15.23
2018-02-22T15:05:19.672Z,14.00
2018-02-22T15:07:47.334Z,13.27
2018-02-22T15:10:14.993Z,13.73
2018-02-22T15:12:42.629Z,13.80
2018-02-22T15:15:10.240Z,13.27
2018-02-22T15:17:37.976Z,13.47
2018-02-22T15:20:05.612Z,13.43
2018-02-22T15:22:33.235Z,13.27
2018-02-22T15:25:00.840Z,14.50
2018-02-22T15:27:28.479Z,13.43
2018-02-22T15:29:56.201Z,12.53
2018-02-22T15:32:23.960Z,13.40
2018-02-22T15:34:51.602Z,14.33
2018-02-22T15:37:19.900Z,12.27
2018-02-22T15:39:47.564Z,12.47
2018-02-22T15:42:15.219Z,13.30
2018-02-22T15:44:42.861Z,12.80
2018-02-22T15:47:10.486Z,13.07
2018-02-22T15:49:38.207Z,13.33
2018-02-22T15:52:05.821Z,14.60
2018-02-22T15:54:33.452Z,15.37
2018-02-22T15:57:01.056Z,13.80
2018-02-22T15:59:28.687Z,14.27
2018-02-22T16:01:56.320Z,15.27
2018-02-22T16:04:23.952Z,14.17
2018-02-22T16:06:51.648Z,14.10
2018-02-22T16:09:19.314Z,14.00
2018-02-22T16:11:46.973Z,13.33
2018-02-22T16:14:14.640Z,14.30
2018-02-22T16:16:42.258Z,13.17
2018-02-22T16:19:09.913Z,13.27
2018-02-22T16:21:37.519Z,12.93
2018-02-22T16:24:05.155Z,13.13
2018-02-22T16:26:32.844Z,12.07
2018-02-22T16:29:00.476Z,13.77
2018-02-22T16:31:28.115Z,13.03
2018-02-22T16:33:55.728Z,12.23
2018-02-22T16:36:23.363Z,13.47
2018-02-22T16:38:51.055Z,13.67
2018-02-22T16:41:18.719Z,12.97
2018-02-22T16:43:46.380Z,13.43
2018-02-22T16:46:14.048Z,13.57
2018-02-22T16:48:41.655Z,15.10
2018-02-22T16:51:09.284Z,15.00
2018-02-22T16:53:36.932Z,11.40
2018-02-22T16:56:04.600Z,12.63
2018-02-22T16:58:32.261Z,14.23
2018-02-22T17:00:59.924Z,14.47
2018-02-22T17:03:27.580Z,15.90
2018-02-22T17:05:55.243Z,17.57
2018-02-22T17:08:22.917Z,16.00
2018-02-22T17:10:50.556Z,18.80
2018-02-22T17:13:18.231Z,20.07
2018-02-22T17:15:45.882Z,20.43
2018-02-22T17:18:13.511Z,24.97
2018-02-22T17:20:41.124Z,19.67
2018-02-22T17:23:08.756Z,17.80
2018-02-22T17:25:35.806Z,20.27
2018-02-22T17:28:09.164Z,20.50
2018-02-22T17:30:42.359Z,22.83
2018-02-22T17:33:09.984Z,19.57
2018-02-22T17:35:38.401Z,21.00
2018-02-22T17:38:06.840Z,22.17
2018-02-22T17:40:40.208Z,22.67
2018-02-22T17:43:07.852Z,23.60
2018-02-22T17:45:35.471Z,22.00
2018-02-22T17:48:03.229Z,20.50
2018-02-22T17:50:31.400Z,22.00
2018-02-22T17:52:59.232Z,21.77
2018-02-22T17:55:26.855Z,19.80
2018-02-22T17:57:54.485Z,24.27
2018-02-22T18:00:22.103Z,23.83
2018-02-22T18:02:49.733Z,25.10
2018-02-22T18:05:17.341Z,24.37
2018-02-22T18:07:45.040Z,19.03
2018-02-22T18:10:12.705Z,23.70
2018-02-22T18:12:40.336Z,23.20
2018-02-22T18:15:07.949Z,25.33
2018-02-22T18:17:35.580Z,22.63
2018-02-22T18:20:03.193Z,21.90
2018-02-22T18:22:30.824Z,20.93
2018-02-22T18:24:58.433Z,18.80
2018-02-22T18:27:26.036Z,20.97
2018-02-22T18:29:53.668Z,20.90
2018-02-22T18:32:21.284Z,19.60
2018-02-22T18:34:48.920Z,15.90
2018-02-22T18:37:21.968Z,19.10
2018-02-22T18:39:49.599Z,18.43
2018-02-22T18:42:21.238Z,20.20
2018-02-22T18:44:54.493Z,20.47
2018-02-22T18:47:22.187Z,21.20
2018-02-22T18:49:49.825Z,22.67
2018-02-22T18:52:17.457Z,21.60
2018-02-22T18:54:45.106Z,22.90
2018-02-22T18:57:12.800Z,19.90
2018-02-22T18:59:40.504Z,20.70
2018-02-22T19:02:08.111Z,20.10
2018-02-22T19:04:35.744Z,21.73
2018-02-22T19:07:03.500Z,22.08
2018-02-22T19:09:31.239Z,21.45
2018-02-22T19:11:58.898Z,22.73
2018-02-22T19:14:26.513Z,21.23
2018-02-22T19:16:54.253Z,20.83
2018-02-22T19:19:21.955Z,20.52
2018-02-22T19:21:49.673Z,19.35
2018-02-22T19:24:17.284Z,18.30
2018-02-22T19:26:45.104Z,18.52
2018-02-22T19:29:12.788Z,17.15
2018-02-22T19:31:41.294Z,17.92
2018-02-22T19:34:09.017Z,17.08
2018-02-22T19:36:36.672Z,16.63
2018-02-22T19:39:04.281Z,15.80
2018-02-22T19:41:32.108Z,17.25
2018-02-22T19:43:59.864Z,14.10
2018-02-22T19:46:27.598Z,17.40
2018-02-22T19:48:55.400Z,15.35
2018-02-22T19:51:23.160Z,16.00
2018-02-22T19:53:50.875Z,15.18
2018-02-22T19:56:18.591Z,16.30
2018-02-22T19:58:46.361Z,13.88
2018-02-22T20:01:14.051Z,15.25
2018-02-22T20:03:41.803Z,13.90
2018-02-22T20:06:09.548Z,14.00
2018-02-22T20:08:37.256Z,14.98
2018-02-22T20:11:04.949Z,14.27
2018-02-22T20:13:32.656Z,13.85
2018-02-22T20:16:00.413Z,13.40
2018-02-22T20:18:28.100Z,13.52
2018-02-22T20:20:55.788Z,14.23
2018-02-22T20:23:23.596Z,12.73
2018-02-22T20:25:51.368Z,13.15
2018-02-22T20:28:19.080Z,12.10
2018-02-22T20:30:46.763Z,11.48
2018-02-22T20:33:14.466Z,12.63
2018-02-22T20:35:42.223Z,12.65
2018-02-22T20:38:10.208Z,11.63
2018-02-22T20:40:37.896Z,11.85
2018-02-22T20:43:05.600Z,12.82
2018-02-22T20:45:33.283Z,11.55
2018-02-22T20:48:01.007Z,11.35
2018-02-22T20:50:28.696Z,10.15
2018-02-22T20:52:58.216Z,9.75
2018-02-22T20:55:35.871Z,10.85
2018-02-22T20:58:03.584Z,10.40
2018-02-22T21:00:31.280Z,10.60
2018-02-22T21:02:59.084Z,10.60
2018-02-22T21:05:26.769Z,10.15
2018-02-22T21:07:54.480Z,10.27
2018-02-22T21:10:22.208Z,10.07
2018-02-22T21:12:49.968Z,10.25
2018-02-22T21:15:17.669Z,10.88
2018-02-22T21:17:45.392Z,9.88
2018-02-22T21:20:13.103Z,11.07
2018-02-22T21:22:40.788Z,10.63
2018-02-22T21:25:08.587Z,11.32
2018-02-22T21:27:36.275Z,10.35
2018-02-22T21:30:04.012Z,9.90
2018-02-22T21:32:31.776Z,9.57
2018-02-22T21:34:59.540Z,9.60
2018-02-22T21:37:27.303Z,10.10
2018-02-22T21:39:55.042Z,9.65
2018-02-22T21:42:22.836Z,9.45
2018-02-22T21:44:50.548Z,10.15
2018-02-22T21:47:18.241Z,10.63
2018-02-22T21:49:46.032Z,9.75
2018-02-22T21:52:13.801Z,10.20
2018-02-22T21:54:41.573Z,11.15
2018-02-22T21:57:09.268Z,10.38
2018-02-22T21:59:36.987Z,10.48
2018-02-22T22:02:04.700Z,10.13
2018-02-22T22:04:32.419Z,9.32
2018-02-22T22:07:00.183Z,10.05
2018-02-22T22:09:27.953Z,9.13
2018-02-22T22:11:55.712Z,9.45
2018-02-22T22:14:23.403Z,9.90
2018-02-22T22:16:51.109Z,10.82
2018-02-22T22:19:18.804Z,9.02
2018-02-22T22:21:46.513Z,9.45
2018-02-22T22:24:14.195Z,8.82
2018-02-22T22:26:41.905Z,8.07
2018-02-22T22:29:09.661Z,8.70
2018-02-22T22:31:37.423Z,8.95
2018-02-22T22:34:05.100Z,8.07
2018-02-22T22:36:32.861Z,9.43
2018-02-22T22:39:00.620Z,7.97
2018-02-22T22:41:28.310Z,9.00
2018-02-22T22:43:56.016Z,8.02
2018-02-22T22:46:23.702Z,8.07
2018-02-22T22:48:51.413Z,7.95
2018-02-22T22:51:19.106Z,7.05
2018-02-22T22:53:46.900Z,7.80
2018-02-22T22:56:14.606Z,7.07
2018-02-22T22:58:42.341Z,7.47
2018-02-22T23:01:10.101Z,8.50
2018-02-22T23:03:37.816Z,7.68
2018-02-22T23:06:05.524Z,8.07
2018-02-22T23:08:33.240Z,6.75
2018-02-22T23:11:00.951Z,6.90
2018-02-22T23:13:28.655Z,7.75
2018-02-22T23:15:56.380Z,8.00
2018-02-22T23:18:24.091Z,9.02
2018-02-22T23:20:51.809Z,7.68
2018-02-22T23:23:19.544Z,7.25
2018-02-22T23:25:47.220Z,8.25
2018-02-22T23:28:14.899Z,8.18
2018-02-22T23:30:42.621Z,8.65
2018-02-22T23:33:10.308Z,8.35
2018-02-22T23:35:38.020Z,7.72
2018-02-22T23:38:05.709Z,8.40
2018-02-22T23:40:49.260Z,8.32
2018-02-22T23:43:16.939Z,7.30
2018-02-22T23:45:44.675Z,7.37
2018-02-22T23:48:12.365Z,7.15
2018-02-22T23:50:40.145Z,8.07
2018-02-22T23:53:07.839Z,7.70
2018-02-22T23:55:35.543Z,7.72
2018-02-22T23:58:03.229Z,7.00
